sensor_id;sensor_type;location;lat;lon;timestamp;pressure;altitude;pressure_sealevel;temperature;humidity
61757;BME280;57225;61.460;24.060;2023-05-02T00:02:35;99294.94;;;3.06;100.00
61757;BME280;57225;61.460;24.060;2023-05-02T00:05:19;99310.31;;;3.07;100.00
61757;BME280;57225;61.460;24.060;2023-05-02T00:08:04;99304.69;;;3.00;100.00
61757;BME280;57225;61.460;24.060;2023-05-02T00:10:48;99297.41;;;2.84;100.00
61757;BME280;57225;61.460;24.060;2023-05-02T00:13:33;99285.69;;;2.91;100.00
61757;BME280;57225;61.460;24.060;2023-05-02T00:16:17;99278.22;;;2.92;100.00
61757;BME280;57225;61.460;24.060;2023-05-02T00:19:02;99265.72;;;2.98;100.00
61757;BME280;57225;61.460;24.060;2023-05-02T00:21:47;99265.34;;;2.96;100.00
61757;BME280;57225;61.460;24.060;2023-05-02T00:24:32;99256.63;;;2.90;100.00
61757;BME280;57225;61.460;24.060;2023-05-02T00:27:16;99257.34;;;2.87;100.00
61757;BME280;57225;61.460;24.060;2023-05-02T00:30:02;99252.41;;;2.70;100.00
61757;BME280;57225;61.460;24.060;2023-05-02T00:32:46;99251.94;;;2.64;100.00
61757;BME280;57225;61.460;24.060;2023-05-02T00:35:32;99246.09;;;2.69;100.00
61757;BME280;57225;61.460;24.060;2023-05-02T00:38:16;99240.94;;;2.64;100.00
61757;BME280;57225;61.460;24.060;2023-05-02T00:41:01;99226.75;;;2.62;100.00
61757;BME280;57225;61.460;24.060;2023-05-02T00:43:45;99229.06;;;2.60;100.00
61757;BME280;57225;61.460;24.060;2023-05-02T00:46:30;99220.91;;;2.67;100.00
61757;BME280;57225;61.460;24.060;2023-05-02T00:49:14;99215.41;;;2.67;100.00
61757;BME280;57225;61.460;24.060;2023-05-02T00:51:58;99212.53;;;2.57;100.00
61757;BME280;57225;61.460;24.060;2023-05-02T00:54:45;99204.13;;;2.46;100.00
61757;BME280;57225;61.460;24.060;2023-05-02T00:57:30;99206.91;;;2.50;100.00
61757;BME280;57225;61.460;24.060;2023-05-02T01:00:16;99200.25;;;2.51;100.00
61757;BME280;57225;61.460;24.060;2023-05-02T01:03:28;99194.28;;;2.45;100.00
61757;BME280;57225;61.460;24.060;2023-05-02T01:06:35;99189.97;;;2.44;100.00
61757;BME280;57225;61.460;24.060;2023-05-02T01:12:30;99176.44;;;2.32;100.00
61757;BME280;57225;61.460;24.060;2023-05-02T01:15:19;99172.53;;;2.33;100.00
61757;BME280;57225;61.460;24.060;2023-05-02T01:18:11;99168.97;;;2.32;100.00
61757;BME280;57225;61.460;24.060;2023-05-02T01:20:59;99161.88;;;2.31;100.00
61757;BME280;57225;61.460;24.060;2023-05-02T01:24:01;99151.44;;;2.14;100.00
61757;BME280;57225;61.460;24.060;2023-05-02T01:29:49;99140.66;;;2.02;100.00
61757;BME280;57225;61.460;24.060;2023-05-02T01:32:36;99132.88;;;1.81;100.00
61757;BME280;57225;61.460;24.060;2023-05-02T01:35:23;99132.78;;;1.74;100.00
61757;BME280;57225;61.460;24.060;2023-05-02T01:38:13;99128.44;;;1.73;100.00
61757;BME280;57225;61.460;24.060;2023-05-02T01:40:58;99130.84;;;1.78;100.00
61757;BME280;57225;61.460;24.060;2023-05-02T01:43:46;99123.06;;;1.80;100.00
61757;BME280;57225;61.460;24.060;2023-05-02T01:46:37;99118.72;;;1.79;100.00
61757;BME280;57225;61.460;24.060;2023-05-02T01:49:24;99113.19;;;1.76;100.00
61757;BME280;57225;61.460;24.060;2023-05-02T01:52:10;99117.50;;;1.77;100.00
61757;BME280;57225;61.460;24.060;2023-05-02T01:54:59;99099.81;;;1.74;100.00
61757;BME280;57225;61.460;24.060;2023-05-02T01:57:46;99110.47;;;1.79;100.00
61757;BME280;57225;61.460;24.060;2023-05-02T02:00:31;99110.38;;;1.72;100.00
61757;BME280;57225;61.460;24.060;2023-05-02T02:03:17;99101.41;;;1.52;100.00
61757;BME280;57225;61.460;24.060;2023-05-02T02:06:04;99093.97;;;1.53;100.00
61757;BME280;57225;61.460;24.060;2023-05-02T02:08:49;99081.13;;;1.57;100.00
61757;BME280;57225;61.460;24.060;2023-05-02T02:11:35;99085.31;;;1.51;100.00
61757;BME280;57225;61.460;24.060;2023-05-02T02:14:22;99082.63;;;1.54;100.00
61757;BME280;57225;61.460;24.060;2023-05-02T02:17:21;99079.53;;;1.56;100.00
61757;BME280;57225;61.460;24.060;2023-05-02T02:20:08;99070.53;;;1.59;100.00
61757;BME280;57225;61.460;24.060;2023-05-02T02:22:55;99076.34;;;1.54;100.00
61757;BME280;57225;61.460;24.060;2023-05-02T02:25:41;99072.31;;;1.48;100.00
61757;BME280;57225;61.460;24.060;2023-05-02T02:28:26;99063.25;;;1.44;100.00
61757;BME280;57225;61.460;24.060;2023-05-02T02:31:11;99064.75;;;1.41;100.00
61757;BME280;57225;61.460;24.060;2023-05-02T02:33:56;99059.03;;;1.50;100.00
61757;BME280;57225;61.460;24.060;2023-05-02T02:36:56;99046.34;;;1.42;100.00
61757;BME280;57225;61.460;24.060;2023-05-02T02:40:04;99041.91;;;1.34;100.00
61757;BME280;57225;61.460;24.060;2023-05-02T02:52:39;99030.41;;;1.25;100.00
61757;BME280;57225;61.460;24.060;2023-05-02T02:55:35;99028.69;;;1.16;100.00
61757;BME280;57225;61.460;24.060;2023-05-02T03:01:26;99004.34;;;1.15;100.00
61757;BME280;57225;61.460;24.060;2023-05-02T03:04:12;99009.78;;;1.11;100.00
61757;BME280;57225;61.460;24.060;2023-05-02T03:06:59;99010.59;;;1.12;100.00
61757;BME280;57225;61.460;24.060;2023-05-02T03:09:46;99007.28;;;1.03;100.00
61757;BME280;57225;61.460;24.060;2023-05-02T03:12:31;99000.28;;;1.05;100.00
61757;BME280;57225;61.460;24.060;2023-05-02T03:18:26;98996.78;;;1.08;100.00
61757;BME280;57225;61.460;24.060;2023-05-02T03:21:10;98990.91;;;1.06;100.00
61757;BME280;57225;61.460;24.060;2023-05-02T03:23:58;98986.09;;;1.00;100.00
61757;BME280;57225;61.460;24.060;2023-05-02T03:26:45;98982.88;;;0.94;100.00
61757;BME280;57225;61.460;24.060;2023-05-02T03:29:30;98975.84;;;0.97;100.00
61757;BME280;57225;61.460;24.060;2023-05-02T03:32:15;98984.63;;;1.06;100.00
61757;BME280;57225;61.460;24.060;2023-05-02T03:35:00;98974.38;;;1.03;100.00
61757;BME280;57225;61.460;24.060;2023-05-02T03:37:44;98972.84;;;1.05;100.00
61757;BME280;57225;61.460;24.060;2023-05-02T03:40:29;98971.47;;;0.92;100.00
61757;BME280;57225;61.460;24.060;2023-05-02T03:43:14;98964.41;;;0.91;100.00
61757;BME280;57225;61.460;24.060;2023-05-02T03:46:04;98964.47;;;0.95;100.00
61757;BME280;57225;61.460;24.060;2023-05-02T03:48:59;98961.78;;;0.98;100.00
61757;BME280;57225;61.460;24.060;2023-05-02T03:51:44;98954.50;;;1.09;100.00
61757;BME280;57225;61.460;24.060;2023-05-02T03:54:31;98956.50;;;1.12;100.00
61757;BME280;57225;61.460;24.060;2023-05-02T03:57:15;98955.97;;;1.03;100.00
61757;BME280;57225;61.460;24.060;2023-05-02T04:00:01;98954.00;;;1.04;100.00
61757;BME280;57225;61.460;24.060;2023-05-02T04:02:45;98956.91;;;1.14;100.00
61757;BME280;57225;61.460;24.060;2023-05-02T04:05:30;98944.06;;;1.18;100.00
61757;BME280;57225;61.460;24.060;2023-05-02T04:08:14;98948.78;;;1.21;100.00
61757;BME280;57225;61.460;24.060;2023-05-02T04:10:59;98942.47;;;1.17;100.00
61757;BME280;57225;61.460;24.060;2023-05-02T04:13:43;98944.91;;;1.23;100.00
61757;BME280;57225;61.460;24.060;2023-05-02T04:16:28;98931.28;;;1.30;100.00
61757;BME280;57225;61.460;24.060;2023-05-02T04:19:13;98928.53;;;1.30;100.00
61757;BME280;57225;61.460;24.060;2023-05-02T04:21:58;98930.97;;;1.35;100.00
61757;BME280;57225;61.460;24.060;2023-05-02T04:24:42;98926.16;;;1.28;100.00
61757;BME280;57225;61.460;24.060;2023-05-02T04:27:27;98919.75;;;1.20;100.00
61757;BME280;57225;61.460;24.060;2023-05-02T04:30:11;98923.41;;;1.28;100.00
61757;BME280;57225;61.460;24.060;2023-05-02T04:32:56;98917.66;;;1.37;100.00
61757;BME280;57225;61.460;24.060;2023-05-02T04:35:40;98911.72;;;1.31;100.00
61757;BME280;57225;61.460;24.060;2023-05-02T04:38:25;98912.09;;;1.33;100.00
61757;BME280;57225;61.460;24.060;2023-05-02T04:41:10;98908.28;;;1.38;100.00
61757;BME280;57225;61.460;24.060;2023-05-02T04:43:55;98904.38;;;1.39;100.00
61757;BME280;57225;61.460;24.060;2023-05-02T04:46:40;98904.41;;;1.42;100.00
61757;BME280;57225;61.460;24.060;2023-05-02T04:49:24;98898.22;;;1.49;100.00
61757;BME280;57225;61.460;24.060;2023-05-02T04:52:10;98888.72;;;1.43;100.00
61757;BME280;57225;61.460;24.060;2023-05-02T04:54:54;98885.66;;;1.48;100.00
61757;BME280;57225;61.460;24.060;2023-05-02T04:57:39;98887.00;;;1.61;100.00
61757;BME280;57225;61.460;24.060;2023-05-02T05:00:24;98884.34;;;1.68;100.00
61757;BME280;57225;61.460;24.060;2023-05-02T05:03:08;98883.47;;;1.60;100.00
61757;BME280;57225;61.460;24.060;2023-05-02T05:05:53;98884.75;;;1.70;100.00
61757;BME280;57225;61.460;24.060;2023-05-02T05:08:37;98879.34;;;1.77;100.00
61757;BME280;57225;61.460;24.060;2023-05-02T05:11:21;98884.44;;;1.75;100.00
61757;BME280;57225;61.460;24.060;2023-05-02T05:14:06;98879.03;;;1.82;100.00
61757;BME280;57225;61.460;24.060;2023-05-02T05:16:50;98865.59;;;1.77;100.00
61757;BME280;57225;61.460;24.060;2023-05-02T05:19:35;98837.19;;;1.63;100.00
61757;BME280;57225;61.460;24.060;2023-05-02T05:22:19;98879.13;;;1.93;100.00
61757;BME280;57225;61.460;24.060;2023-05-02T05:25:04;98880.78;;;2.01;100.00
61757;BME280;57225;61.460;24.060;2023-05-02T05:27:49;98881.25;;;2.07;100.00
61757;BME280;57225;61.460;24.060;2023-05-02T05:30:34;98876.22;;;2.16;100.00
61757;BME280;57225;61.460;24.060;2023-05-02T05:33:19;98873.88;;;2.14;100.00
61757;BME280;57225;61.460;24.060;2023-05-02T05:36:11;98872.69;;;2.15;100.00
61757;BME280;57225;61.460;24.060;2023-05-02T05:38:55;98863.69;;;2.18;100.00
61757;BME280;57225;61.460;24.060;2023-05-02T05:41:40;98859.72;;;2.16;100.00
61757;BME280;57225;61.460;24.060;2023-05-02T05:44:24;98849.53;;;2.16;100.00
61757;BME280;57225;61.460;24.060;2023-05-02T05:47:19;98850.38;;;2.20;100.00
61757;BME280;57225;61.460;24.060;2023-05-02T05:50:05;98849.66;;;2.27;100.00
61757;BME280;57225;61.460;24.060;2023-05-02T05:52:49;98842.97;;;2.28;100.00
61757;BME280;57225;61.460;24.060;2023-05-02T05:55:34;98843.31;;;2.23;100.00
61757;BME280;57225;61.460;24.060;2023-05-02T05:58:18;98843.81;;;2.32;100.00
61757;BME280;57225;61.460;24.060;2023-05-02T06:01:03;98836.66;;;2.24;100.00
61757;BME280;57225;61.460;24.060;2023-05-02T06:03:47;98844.16;;;2.27;100.00
61757;BME280;57225;61.460;24.060;2023-05-02T06:06:32;98841.78;;;2.29;100.00
61757;BME280;57225;61.460;24.060;2023-05-02T06:09:17;98850.91;;;2.36;100.00
61757;BME280;57225;61.460;24.060;2023-05-02T06:12:01;98842.63;;;2.33;100.00
61757;BME280;57225;61.460;24.060;2023-05-02T06:14:45;98836.72;;;2.31;100.00
61757;BME280;57225;61.460;24.060;2023-05-02T06:17:30;98835.50;;;2.28;100.00
61757;BME280;57225;61.460;24.060;2023-05-02T06:20:14;98803.59;;;2.17;100.00
61757;BME280;57225;61.460;24.060;2023-05-02T06:22:59;98829.28;;;2.35;100.00
61757;BME280;57225;61.460;24.060;2023-05-02T06:25:44;98826.16;;;2.33;100.00
61757;BME280;57225;61.460;24.060;2023-05-02T06:28:29;98821.47;;;2.37;100.00
61757;BME280;57225;61.460;24.060;2023-05-02T06:31:13;98827.00;;;2.44;100.00
61757;BME280;57225;61.460;24.060;2023-05-02T06:33:59;98827.88;;;2.52;100.00
61757;BME280;57225;61.460;24.060;2023-05-02T06:36:43;98822.72;;;2.47;100.00
61757;BME280;57225;61.460;24.060;2023-05-02T06:39:28;98819.13;;;2.42;100.00
61757;BME280;57225;61.460;24.060;2023-05-02T06:42:12;98816.44;;;2.46;100.00
61757;BME280;57225;61.460;24.060;2023-05-02T06:44:57;98820.84;;;2.61;100.00
61757;BME280;57225;61.460;24.060;2023-05-02T06:47:41;98824.47;;;2.72;100.00
61757;BME280;57225;61.460;24.060;2023-05-02T06:50:26;98829.63;;;2.77;100.00
61757;BME280;57225;61.460;24.060;2023-05-02T06:53:10;98828.09;;;2.83;100.00
61757;BME280;57225;61.460;24.060;2023-05-02T06:55:55;98826.53;;;2.82;100.00
61757;BME280;57225;61.460;24.060;2023-05-02T06:58:40;98823.38;;;2.84;100.00
61757;BME280;57225;61.460;24.060;2023-05-02T07:01:25;98814.78;;;2.93;100.00
61757;BME280;57225;61.460;24.060;2023-05-02T07:04:09;98828.22;;;3.05;100.00
61757;BME280;57225;61.460;24.060;2023-05-02T07:06:54;98818.41;;;3.11;100.00
61757;BME280;57225;61.460;24.060;2023-05-02T07:09:38;98807.44;;;3.14;100.00
61757;BME280;57225;61.460;24.060;2023-05-02T07:12:24;98815.75;;;3.25;100.00
61757;BME280;57225;61.460;24.060;2023-05-02T07:15:09;98814.22;;;3.35;100.00
61757;BME280;57225;61.460;24.060;2023-05-02T07:17:54;98828.84;;;3.49;100.00
61757;BME280;57225;61.460;24.060;2023-05-02T07:20:38;98823.72;;;3.51;100.00
61757;BME280;57225;61.460;24.060;2023-05-02T07:23:25;98821.38;;;3.57;100.00
61757;BME280;57225;61.460;24.060;2023-05-02T07:26:09;98819.88;;;3.67;100.00
61757;BME280;57225;61.460;24.060;2023-05-02T07:28:54;98827.31;;;3.59;100.00
61757;BME280;57225;61.460;24.060;2023-05-02T07:31:39;98820.56;;;3.49;100.00
61757;BME280;57225;61.460;24.060;2023-05-02T07:34:23;98825.34;;;3.59;100.00
61757;BME280;57225;61.460;24.060;2023-05-02T07:37:08;98816.69;;;3.68;100.00
61757;BME280;57225;61.460;24.060;2023-05-02T07:39:52;98825.38;;;3.70;100.00
61757;BME280;57225;61.460;24.060;2023-05-02T07:42:36;98818.31;;;3.80;100.00
61757;BME280;57225;61.460;24.060;2023-05-02T07:45:21;98815.19;;;3.85;100.00
61757;BME280;57225;61.460;24.060;2023-05-02T07:48:05;98815.22;;;3.92;100.00
61757;BME280;57225;61.460;24.060;2023-05-02T07:50:50;98811.28;;;4.03;100.00
61757;BME280;57225;61.460;24.060;2023-05-02T07:53:34;98805.78;;;4.14;100.00
61757;BME280;57225;61.460;24.060;2023-05-02T07:56:19;98810.13;;;4.26;100.00
61757;BME280;57225;61.460;24.060;2023-05-02T07:59:04;98816.03;;;4.38;100.00
61757;BME280;57225;61.460;24.060;2023-05-02T08:01:48;98812.88;;;4.51;100.00
61757;BME280;57225;61.460;24.060;2023-05-02T08:04:33;98812.91;;;4.54;100.00
61757;BME280;57225;61.460;24.060;2023-05-02T08:07:18;98816.44;;;4.65;100.00
61757;BME280;57225;61.460;24.060;2023-05-02T08:10:03;98814.44;;;4.76;100.00
61757;BME280;57225;61.460;24.060;2023-05-02T08:12:47;98816.03;;;4.70;100.00
61757;BME280;57225;61.460;24.060;2023-05-02T08:15:31;98803.44;;;4.73;100.00
61757;BME280;57225;61.460;24.060;2023-05-02T08:18:16;98808.53;;;4.92;100.00
61757;BME280;57225;61.460;24.060;2023-05-02T08:21:00;98804.94;;;5.02;100.00
61757;BME280;57225;61.460;24.060;2023-05-02T08:23:46;98801.34;;;5.12;100.00
61757;BME280;57225;61.460;24.060;2023-05-02T08:26:31;98810.41;;;5.23;100.00
61757;BME280;57225;61.460;24.060;2023-05-02T08:29:16;98806.44;;;5.35;100.00
61757;BME280;57225;61.460;24.060;2023-05-02T08:32:00;98806.41;;;5.39;100.00
61757;BME280;57225;61.460;24.060;2023-05-02T08:34:45;98798.88;;;5.50;100.00
61757;BME280;57225;61.460;24.060;2023-05-02T08:37:29;98772.03;;;5.47;100.00
61757;BME280;57225;61.460;24.060;2023-05-02T08:40:16;98789.72;;;5.63;100.00
61757;BME280;57225;61.460;24.060;2023-05-02T08:43:02;98795.66;;;5.62;100.00
61757;BME280;57225;61.460;24.060;2023-05-02T08:45:48;98793.63;;;5.70;100.00
61757;BME280;57225;61.460;24.060;2023-05-02T08:48:46;98799.94;;;5.70;100.00
61757;BME280;57225;61.460;24.060;2023-05-02T08:51:34;98803.13;;;5.72;100.00
61757;BME280;57225;61.460;24.060;2023-05-02T08:54:20;98807.50;;;5.66;100.00
61757;BME280;57225;61.460;24.060;2023-05-02T08:57:08;98813.41;;;5.64;100.00
61757;BME280;57225;61.460;24.060;2023-05-02T08:59:53;98820.13;;;5.67;100.00
61757;BME280;57225;61.460;24.060;2023-05-02T09:03:07;98805.50;;;5.66;100.00
61757;BME280;57225;61.460;24.060;2023-05-02T09:06:08;98809.03;;;5.74;100.00
61757;BME280;57225;61.460;24.060;2023-05-02T09:08:53;98805.09;;;5.75;100.00
61757;BME280;57225;61.460;24.060;2023-05-02T09:11:37;98804.63;;;5.84;100.00
61757;BME280;57225;61.460;24.060;2023-05-02T09:14:22;98807.00;;;5.89;100.00
61757;BME280;57225;61.460;24.060;2023-05-02T09:17:06;98802.25;;;5.93;100.00
61757;BME280;57225;61.460;24.060;2023-05-02T09:19:59;98794.31;;;5.98;100.00
61757;BME280;57225;61.460;24.060;2023-05-02T09:22:51;98787.19;;;5.97;100.00
61757;BME280;57225;61.460;24.060;2023-05-02T09:25:36;98786.41;;;6.00;100.00
61757;BME280;57225;61.460;24.060;2023-05-02T09:28:37;98797.41;;;6.07;100.00
61757;BME280;57225;61.460;24.060;2023-05-02T09:31:33;98790.31;;;6.07;100.00
61757;BME280;57225;61.460;24.060;2023-05-02T09:34:20;98765.06;;;5.97;100.00
61757;BME280;57225;61.460;24.060;2023-05-02T09:37:05;98786.69;;;6.17;100.00
61757;BME280;57225;61.460;24.060;2023-05-02T09:40:05;98790.53;;;6.30;100.00
61757;BME280;57225;61.460;24.060;2023-05-02T09:42:50;98786.53;;;6.34;100.00
61757;BME280;57225;61.460;24.060;2023-05-02T09:45:35;98791.22;;;6.44;100.00
61757;BME280;57225;61.460;24.060;2023-05-02T09:48:19;98793.13;;;6.51;100.00
61757;BME280;57225;61.460;24.060;2023-05-02T09:51:16;98763.94;;;6.43;100.00
61757;BME280;57225;61.460;24.060;2023-05-02T09:54:00;98779.53;;;6.67;100.00
61757;BME280;57225;61.460;24.060;2023-05-02T09:56:54;98779.69;;;6.91;100.00
61757;BME280;57225;61.460;24.060;2023-05-02T09:59:39;98773.72;;;6.96;100.00
61757;BME280;57225;61.460;24.060;2023-05-02T10:02:24;98780.75;;;7.04;100.00
61757;BME280;57225;61.460;24.060;2023-05-02T10:05:09;98772.44;;;7.04;100.00
61757;BME280;57225;61.460;24.060;2023-05-02T10:07:54;98769.31;;;7.02;100.00
61757;BME280;57225;61.460;24.060;2023-05-02T10:10:42;98774.94;;;7.28;100.00
61757;BME280;57225;61.460;24.060;2023-05-02T10:13:29;98767.97;;;7.47;100.00
61757;BME280;57225;61.460;24.060;2023-05-02T10:16:21;98768.19;;;7.60;100.00
61757;BME280;57225;61.460;24.060;2023-05-02T10:19:11;98765.50;;;7.56;100.00
61757;BME280;57225;61.460;24.060;2023-05-02T10:22:02;98777.13;;;7.44;100.00
61757;BME280;57225;61.460;24.060;2023-05-02T10:24:48;98769.84;;;7.23;100.00
61757;BME280;57225;61.460;24.060;2023-05-02T10:27:33;98775.84;;;7.18;100.00
61757;BME280;57225;61.460;24.060;2023-05-02T10:30:18;98770.44;;;7.08;100.00
61757;BME280;57225;61.460;24.060;2023-05-02T10:33:02;98769.75;;;6.97;100.00
61757;BME280;57225;61.460;24.060;2023-05-02T10:35:47;98771.81;;;6.89;100.00
61757;BME280;57225;61.460;24.060;2023-05-02T10:38:32;98781.41;;;6.77;100.00
61757;BME280;57225;61.460;24.060;2023-05-02T10:41:20;98781.84;;;6.76;100.00
61757;BME280;57225;61.460;24.060;2023-05-02T10:44:06;98772.38;;;6.73;100.00
61757;BME280;57225;61.460;24.060;2023-05-02T10:47:20;98771.63;;;6.21;100.00
61757;BME280;57225;61.460;24.060;2023-05-02T10:50:05;98780.75;;;6.15;100.00
61757;BME280;57225;61.460;24.060;2023-05-02T10:52:51;98776.00;;;6.19;100.00
61757;BME280;57225;61.460;24.060;2023-05-02T10:55:35;98791.94;;;6.00;100.00
61757;BME280;57225;61.460;24.060;2023-05-02T10:58:20;98790.88;;;5.70;100.00
61757;BME280;57225;61.460;24.060;2023-05-02T11:04:11;98787.31;;;5.69;100.00
61757;BME280;57225;61.460;24.060;2023-05-02T11:09:39;98796.78;;;5.72;100.00
61757;BME280;57225;61.460;24.060;2023-05-02T11:12:43;98794.44;;;5.74;100.00
61757;BME280;57225;61.460;24.060;2023-05-02T11:18:16;98796.69;;;5.96;100.00
61757;BME280;57225;61.460;24.060;2023-05-02T11:21:26;98792.78;;;5.83;100.00
61757;BME280;57225;61.460;24.060;2023-05-02T11:24:40;98803.44;;;5.85;100.00
61757;BME280;57225;61.460;24.060;2023-05-02T11:30:13;98796.34;;;5.87;100.00
61757;BME280;57225;61.460;24.060;2023-05-02T11:35:49;98796.28;;;5.94;100.00
61757;BME280;57225;61.460;24.060;2023-05-02T11:38:36;98800.66;;;5.88;100.00
61757;BME280;57225;61.460;24.060;2023-05-02T11:41:21;98801.16;;;5.65;100.00
61757;BME280;57225;61.460;24.060;2023-05-02T11:44:06;98808.25;;;5.74;100.00
61757;BME280;57225;61.460;24.060;2023-05-02T11:47:00;98813.31;;;5.93;100.00
61757;BME280;57225;61.460;24.060;2023-05-02T11:49:45;98818.84;;;5.82;100.00
61757;BME280;57225;61.460;24.060;2023-05-02T11:52:36;98824.53;;;5.47;100.00
61757;BME280;57225;61.460;24.060;2023-05-02T11:55:22;98827.34;;;5.33;100.00
61757;BME280;57225;61.460;24.060;2023-05-02T11:58:11;98828.56;;;5.28;100.00
61757;BME280;57225;61.460;24.060;2023-05-02T12:00:58;98817.97;;;5.05;100.00
61757;BME280;57225;61.460;24.060;2023-05-02T12:03:43;98825.91;;;4.57;100.00
61757;BME280;57225;61.460;24.060;2023-05-02T12:06:27;98800.69;;;4.34;100.00
61757;BME280;57225;61.460;24.060;2023-05-02T12:09:13;98838.09;;;4.38;100.00
61757;BME280;57225;61.460;24.060;2023-05-02T12:12:02;98838.13;;;4.45;100.00
61757;BME280;57225;61.460;24.060;2023-05-02T12:14:47;98845.97;;;4.22;100.00
61757;BME280;57225;61.460;24.060;2023-05-02T12:17:40;98847.13;;;4.14;100.00
61757;BME280;57225;61.460;24.060;2023-05-02T12:20:24;98858.50;;;3.98;100.00
61757;BME280;57225;61.460;24.060;2023-05-02T12:23:09;98863.59;;;3.79;100.00
61757;BME280;57225;61.460;24.060;2023-05-02T12:25:54;98866.41;;;3.96;100.00
61757;BME280;57225;61.460;24.060;2023-05-02T12:28:50;98869.53;;;3.95;100.00
61757;BME280;57225;61.460;24.060;2023-05-02T12:31:35;98861.63;;;3.79;100.00
61757;BME280;57225;61.460;24.060;2023-05-02T12:34:38;98870.66;;;3.80;100.00
61757;BME280;57225;61.460;24.060;2023-05-02T12:37:24;98871.41;;;3.66;100.00
61757;BME280;57225;61.460;24.060;2023-05-02T12:40:17;98883.22;;;3.74;100.00
61757;BME280;57225;61.460;24.060;2023-05-02T12:43:04;98880.38;;;3.45;100.00
61757;BME280;57225;61.460;24.060;2023-05-02T12:46:08;98889.88;;;3.58;100.00
61757;BME280;57225;61.460;24.060;2023-05-02T12:49:05;98898.53;;;3.57;100.00
61757;BME280;57225;61.460;24.060;2023-05-02T12:51:54;98885.91;;;3.52;100.00
61757;BME280;57225;61.460;24.060;2023-05-02T12:54:41;98886.28;;;3.47;100.00
61757;BME280;57225;61.460;24.060;2023-05-02T12:57:25;98911.06;;;3.47;100.00
61757;BME280;57225;61.460;24.060;2023-05-02T13:00:10;98910.38;;;3.64;100.00
61757;BME280;57225;61.460;24.060;2023-05-02T13:02:55;98911.81;;;3.41;100.00
61757;BME280;57225;61.460;24.060;2023-05-02T13:05:39;98916.91;;;3.42;100.00
61757;BME280;57225;61.460;24.060;2023-05-02T13:08:24;98913.81;;;3.47;100.00
61757;BME280;57225;61.460;24.060;2023-05-02T13:11:08;98911.09;;;3.54;100.00
61757;BME280;57225;61.460;24.060;2023-05-02T13:13:53;98926.94;;;3.72;100.00
61757;BME280;57225;61.460;24.060;2023-05-02T13:16:38;98918.28;;;3.77;100.00
61757;BME280;57225;61.460;24.060;2023-05-02T13:19:22;98921.38;;;3.64;100.00
61757;BME280;57225;61.460;24.060;2023-05-02T13:22:08;98923.69;;;3.52;100.00
61757;BME280;57225;61.460;24.060;2023-05-02T13:24:52;98926.50;;;3.66;100.00
61757;BME280;57225;61.460;24.060;2023-05-02T13:27:37;98920.28;;;3.87;100.00
61757;BME280;57225;61.460;24.060;2023-05-02T13:30:21;98926.63;;;3.91;100.00
61757;BME280;57225;61.460;24.060;2023-05-02T13:33:06;98934.81;;;3.77;100.00
61757;BME280;57225;61.460;24.060;2023-05-02T13:35:50;98939.50;;;3.66;100.00
61757;BME280;57225;61.460;24.060;2023-05-02T13:38:35;98940.22;;;3.52;100.00
61757;BME280;57225;61.460;24.060;2023-05-02T13:41:19;98924.28;;;3.24;100.00
61757;BME280;57225;61.460;24.060;2023-05-02T13:44:05;98947.22;;;3.42;100.00
61757;BME280;57225;61.460;24.060;2023-05-02T13:47:13;98951.28;;;3.62;100.00
61757;BME280;57225;61.460;24.060;2023-05-02T13:49:58;98955.31;;;3.83;100.00
61757;BME280;57225;61.460;24.060;2023-05-02T13:52:42;98967.09;;;3.76;100.00
61757;BME280;57225;61.460;24.060;2023-05-02T13:55:27;98962.34;;;3.73;100.00
61757;BME280;57225;61.460;24.060;2023-05-02T13:58:11;98977.38;;;3.86;100.00
61757;BME280;57225;61.460;24.060;2023-05-02T14:00:56;98974.19;;;3.77;100.00
61757;BME280;57225;61.460;24.060;2023-05-02T14:03:41;98985.88;;;3.56;100.00
61757;BME280;57225;61.460;24.060;2023-05-02T14:06:25;98984.66;;;3.47;100.00
61757;BME280;57225;61.460;24.060;2023-05-02T14:09:10;98990.72;;;3.81;100.00
61757;BME280;57225;61.460;24.060;2023-05-02T14:11:54;98993.13;;;3.86;100.00
61757;BME280;57225;61.460;24.060;2023-05-02T14:14:39;98996.13;;;3.59;100.00
61757;BME280;57225;61.460;24.060;2023-05-02T14:17:25;99006.38;;;3.62;100.00
61757;BME280;57225;61.460;24.060;2023-05-02T14:20:10;99012.31;;;3.68;100.00
61757;BME280;57225;61.460;24.060;2023-05-02T14:22:54;98998.47;;;3.54;100.00
61757;BME280;57225;61.460;24.060;2023-05-02T14:25:39;99000.75;;;3.48;100.00
61757;BME280;57225;61.460;24.060;2023-05-02T14:28:23;99018.06;;;3.45;100.00
61757;BME280;57225;61.460;24.060;2023-05-02T14:31:07;99022.16;;;3.18;100.00
61757;BME280;57225;61.460;24.060;2023-05-02T14:33:52;99009.19;;;3.15;100.00
61757;BME280;57225;61.460;24.060;2023-05-02T14:36:38;99025.03;;;3.29;100.00
61757;BME280;57225;61.460;24.060;2023-05-02T14:39:22;99042.22;;;3.15;100.00
61757;BME280;57225;61.460;24.060;2023-05-02T14:42:06;99050.78;;;3.10;100.00
61757;BME280;57225;61.460;24.060;2023-05-02T14:44:51;99051.59;;;3.10;100.00
61757;BME280;57225;61.460;24.060;2023-05-02T14:47:36;99049.91;;;2.99;100.00
61757;BME280;57225;61.460;24.060;2023-05-02T14:50:20;99055.41;;;2.99;100.00
61757;BME280;57225;61.460;24.060;2023-05-02T14:53:05;99063.75;;;3.06;100.00
61757;BME280;57225;61.460;24.060;2023-05-02T14:55:50;99060.19;;;3.02;100.00
61757;BME280;57225;61.460;24.060;2023-05-02T14:58:34;99079.13;;;3.10;100.00
61757;BME280;57225;61.460;24.060;2023-05-02T15:01:20;99071.19;;;3.02;100.00
61757;BME280;57225;61.460;24.060;2023-05-02T15:04:04;99079.00;;;2.96;100.00
61757;BME280;57225;61.460;24.060;2023-05-02T15:06:49;99080.53;;;2.94;100.00
61757;BME280;57225;61.460;24.060;2023-05-02T15:09:36;99074.84;;;2.76;100.00